Time;durP1;ratioP1;P1;durP2;ratioP2;P2;SDS_P1;SDS_P2;PMS_P1;PMS_P2;Temp;Humidity;BMP_temperature;BMP_pressure;BME280_temperature;BME280_humidity;BME280_pressure;Samples;Min_cycle;Max_cycle;Signal;HPM_P1;HPM_P2
2022/12/15 00:39:42;;;;;;;55.38;24.90;;;;;;;-7.08;100.00;99985.34;4983344;28;20065;-81
2022/12/15 00:42:11;;;;;;;49.63;24.48;;;;;;;-7.11;100.00;99985.50;4982244;28;20483;-81
2022/12/15 00:44:40;;;;;;;46.95;23.35;;;;;;;-7.15;100.00;99989.06;4987318;28;20294;-80
2022/12/15 00:47:05;;;;;;;53.00;23.95;;;;;;;-7.14;100.00;99983.91;4984830;28;20046;-82
2022/12/15 01:22:36;;;;;;;52.13;23.27;;;;;;;-7.25;100.00;100016.56;4981422;28;20113;-81
2022/12/15 01:25:04;;;;;;;48.80;23.42;;;;;;;-7.31;100.00;100021.88;4981801;28;20047;-81
2022/12/15 01:27:31;;;;;;;48.67;22.83;;;;;;;-7.37;100.00;100022.09;4981843;28;20050;-80
2022/12/15 01:29:57;;;;;;;47.40;23.45;;;;;;;-7.37;100.00;100020.38;4983452;28;20055;-81
2022/12/15 01:32:26;;;;;;;49.65;22.15;;;;;;;-7.36;100.00;100019.50;4979620;28;20454;-79
2022/12/15 01:34:53;;;;;;;52.88;23.95;;;;;;;-7.40;100.00;100028.13;4979356;28;20058;-79
2022/12/15 01:37:20;;;;;;;48.17;23.20;;;;;;;-7.36;100.00;100024.56;4981011;28;20074;-79
2022/12/15 01:42:36;;;;;;;43.83;22.67;;;;;;;-7.32;100.00;100039.72;4952374;28;20134;-79
2022/12/15 01:45:37;;;;;;;49.55;22.67;;;;;;;-7.20;100.00;100045.16;4958298;29;20091;-78
2022/12/15 01:48:09;;;;;;;48.83;23.55;;;;;;;-7.28;100.00;100042.09;4957026;29;20070;-78
2022/12/15 01:50:40;;;;;;;50.13;24.27;;;;;;;-7.26;100.00;100040.31;4958189;29;20048;-79
2022/12/15 01:53:08;;;;;;;53.70;24.15;;;;;;;-7.28;100.00;100044.63;4965419;28;20082;-79
2022/12/15 01:55:35;;;;;;;55.08;26.98;;;;;;;-7.34;100.00;100046.56;4977755;28;20058;-80
2022/12/15 01:58:05;;;;;;;50.90;23.27;;;;;;;-7.29;100.00;100048.06;4977329;28;20051;-79
2022/12/15 02:00:33;;;;;;;46.55;23.92;;;;;;;-7.36;100.00;100059.34;4976842;28;20326;-79
2022/12/15 02:03:01;;;;;;;48.08;24.17;;;;;;;-7.34;100.00;100057.56;4977779;28;20150;-79
2022/12/15 02:05:31;;;;;;;50.38;23.88;;;;;;;-7.37;100.00;100048.34;4976376;28;20053;-79
2022/12/15 02:07:59;;;;;;;45.83;22.58;;;;;;;-7.47;100.00;100056.34;4976372;28;20043;-78
2022/12/15 02:10:29;;;;;;;47.80;23.52;;;;;;;-7.50;100.00;100056.47;4976510;28;20401;-79
2022/12/15 02:13:08;;;;;;;47.13;23.30;;;;;;;-7.53;100.00;100057.41;4983995;28;20046;-78
2022/12/15 02:15:40;;;;;;;48.35;23.23;;;;;;;-7.60;100.00;100052.63;4988668;28;20043;-79
2022/12/15 02:18:17;;;;;;;52.28;23.60;;;;;;;-7.56;100.00;100054.97;4987384;28;20074;-78
2022/12/15 02:20:52;;;;;;;47.42;24.10;;;;;;;-7.52;100.00;100058.22;4986955;28;20067;-79
2022/12/15 02:24:10;;;;;;;48.70;24.02;;;;;;;-7.52;100.00;100060.78;4982380;28;20069;-80
2022/12/15 02:27:15;;;;;;;52.58;23.92;;;;;;;-7.58;100.00;100051.69;4925745;29;20188;-79
2022/12/15 02:30:10;;;;;;;48.17;23.67;;;;;;;-7.48;100.00;100064.88;4882304;29;20075;-79
2022/12/15 02:32:42;;;;;;;49.70;24.52;;;;;;;-7.50;100.00;100059.00;4965863;28;20051;-80
2022/12/15 02:35:12;;;;;;;;;;;;;;;-7.58;100.00;100056.78;4980623;28;20078;-79
2022/12/15 02:37:40;;;;;;;46.33;23.88;;;;;;;-7.56;100.00;100056.72;4986642;28;19933;-78
2022/12/15 02:40:09;;;;;;;49.45;24.10;;;;;;;-7.52;100.00;100053.16;4988478;28;20051;-78
2022/12/15 02:42:42;;;;;;;57.42;26.83;;;;;;;-7.52;100.00;100063.31;4967753;28;20530;-79
2022/12/15 02:45:13;;;;;;;57.60;24.73;;;;;;;-7.51;100.00;100059.88;4964968;28;20075;-79
2022/12/15 02:47:48;;;;;;;52.53;25.25;;;;;;;-7.55;100.00;100059.19;4983012;28;20051;-79
2022/12/15 02:50:35;;;;;;;52.72;26.70;;;;;;;-7.48;100.00;100059.78;4983627;28;20051;-79
2022/12/15 02:53:15;;;;;;;51.40;24.25;;;;;;;-7.50;100.00;100066.63;4982836;28;20097;-80
2022/12/15 02:55:53;;;;;;;50.95;24.77;;;;;;;-7.49;100.00;100078.44;4979084;28;20077;-79
2022/12/15 02:58:27;;;;;;;51.85;24.67;;;;;;;-7.62;100.00;100077.25;4982777;28;20081;-79
2022/12/15 03:00:59;;;;;;;59.17;26.10;;;;;;;-7.59;100.00;100064.44;4981200;28;20046;-78
2022/12/15 03:03:26;;;;;;;55.70;26.88;;;;;;;-7.58;100.00;100072.03;4979826;28;20174;-79
2022/12/15 03:05:54;;;;;;;56.50;25.38;;;;;;;-7.60;100.00;100080.59;4980441;28;20082;-79
2022/12/15 03:08:21;;;;;;;52.20;25.45;;;;;;;-7.65;100.00;100092.63;4979491;28;20506;-80
2022/12/15 03:10:49;;;;;;;65.88;27.30;;;;;;;-7.65;100.00;100092.63;4981049;28;20074;-79
2022/12/15 03:13:16;;;;;;;58.30;27.38;;;;;;;-7.61;100.00;100091.63;4979761;28;20062;-80
2022/12/15 03:15:42;;;;;;;55.95;27.92;;;;;;;-7.66;100.00;100083.34;4979315;28;20201;-79
2022/12/15 03:18:11;;;;;;;68.40;28.85;;;;;;;-7.71;100.00;100079.25;4978370;28;20126;-79
2022/12/15 03:20:37;;;;;;;54.28;28.33;;;;;;;-7.68;100.00;100087.66;4978400;28;20058;-80
2022/12/15 03:23:04;;;;;;;63.35;29.25;;;;;;;-7.71;100.00;100084.31;4979822;28;20486;-81
2022/12/15 03:25:31;;;;;;;63.28;28.15;;;;;;;-7.67;100.00;100102.84;4980536;28;20089;-80
2022/12/15 03:27:57;;;;;;;64.45;28.35;;;;;;;-7.74;100.00;100093.75;4978781;28;20494;-79
2022/12/15 03:30:24;;;;;;;58.55;29.23;;;;;;;-7.73;100.00;100106.41;4976726;28;20061;-81
2022/12/15 03:32:52;;;;;;;55.70;27.63;;;;;;;-7.76;100.00;100103.16;4979042;28;20062;-80
2022/12/15 03:35:20;;;;;;;58.17;28.15;;;;;;;-7.74;100.00;100102.22;4979278;28;20515;-80
2022/12/15 03:37:46;;;;;;;69.78;27.58;;;;;;;-7.72;100.00;100103.00;4979259;28;20506;-80
2022/12/15 03:40:16;;;;;;;55.80;27.55;;;;;;;-7.65;100.00;100102.78;4980338;28;20154;-81
2022/12/15 03:42:50;;;;;;;68.03;27.70;;;;;;;-7.72;100.00;100105.53;4979456;28;20494;-80
2022/12/15 03:45:18;;;;;;;54.50;26.85;;;;;;;-7.81;100.00;100102.47;4978731;28;20050;-80
2022/12/15 03:47:45;;;;;;;62.65;27.30;;;;;;;-7.77;100.00;100116.72;4978601;28;20568;-80
2022/12/15 03:50:13;;;;;;;58.80;26.98;;;;;;;-7.70;100.00;100125.81;4979973;28;20110;-80
2022/12/15 03:52:41;;;;;;;60.42;27.08;;;;;;;-7.78;100.00;100115.06;4975628;28;20489;-79
2022/12/15 03:55:09;;;;;;;52.50;27.15;;;;;;;-7.65;100.00;100118.03;4976396;28;20089;-78
2022/12/15 03:57:36;;;;;;;56.17;26.40;;;;;;;-7.68;100.00;100103.72;4976054;28;20081;-78
2022/12/15 04:00:05;;;;;;;51.60;25.85;;;;;;;-7.78;100.00;100113.38;4975841;28;20051;-78
2022/12/15 04:02:32;;;;;;;59.97;29.20;;;;;;;-7.81;100.00;100116.00;4974358;28;20061;-78
2022/12/15 04:04:59;;;;;;;61.65;26.52;;;;;;;-7.76;100.00;100126.84;4976742;28;20085;-79
2022/12/15 04:07:25;;;;;;;52.22;26.75;;;;;;;-7.81;100.00;100123.63;4978151;28;20134;-79
2022/12/15 04:09:53;;;;;;;61.83;28.13;;;;;;;-7.74;100.00;100129.31;4977721;28;20129;-79
2022/12/15 04:12:20;;;;;;;57.08;27.50;;;;;;;-7.82;100.00;100124.50;4977305;28;20086;-80
2022/12/15 04:14:46;;;;;;;56.35;26.92;;;;;;;-7.76;100.00;100131.91;4976865;28;20351;-78
2022/12/15 04:17:13;;;;;;;52.63;26.67;;;;;;;-7.80;100.00;100134.63;4976302;28;20085;-79
2022/12/15 04:22:24;;;;;;;51.72;28.17;;;;;;;-7.73;100.00;100136.06;4976712;28;20058;-79
2022/12/15 05:33:35;;;;;;;49.85;26.05;;;;;;;-7.92;100.00;100156.16;4980899;28;20478;-78
2022/12/15 05:36:02;;;;;;;53.35;26.50;;;;;;;-7.89;100.00;100153.53;4984043;28;20055;-79
2022/12/15 05:38:29;;;;;;;54.47;26.42;;;;;;;-7.83;100.00;100155.88;4980196;28;20077;-79
2022/12/15 05:40:57;;;;;;;56.75;28.35;;;;;;;-7.83;100.00;100165.19;4980035;28;20516;-80
2022/12/15 05:43:24;;;;;;;54.55;26.77;;;;;;;-7.86;100.00;100175.47;4979630;28;20047;-80
2022/12/15 05:45:51;;;;;;;56.97;26.83;;;;;;;-7.85;100.00;100177.94;4980078;28;20050;-80
2022/12/15 05:48:18;;;;;;;53.00;28.15;;;;;;;-7.88;100.00;100172.13;4979283;28;20054;-79
2022/12/15 05:50:46;;;;;;;54.50;27.17;;;;;;;-7.90;100.00;100174.72;4984306;28;20078;-78
2022/12/15 05:53:13;;;;;;;62.03;27.65;;;;;;;-7.95;100.00;100180.84;4985761;28;20058;-79
2022/12/15 05:55:39;;;;;;;52.97;26.27;;;;;;;-7.89;100.00;100185.72;4986318;28;20062;-80
2022/12/15 05:58:06;;;;;;;51.05;26.75;;;;;;;-7.95;100.00;100184.19;4985266;28;20050;-80
2022/12/15 06:00:32;;;;;;;59.03;27.15;;;;;;;-8.00;100.00;100186.06;4982713;28;20558;-79
2022/12/15 06:02:59;;;;;;;52.63;26.98;;;;;;;-8.02;100.00;100192.91;4981079;28;20130;-80
2022/12/15 06:05:26;;;;;;;58.85;28.45;;;;;;;-8.02;100.00;100183.56;4980842;28;20129;-79
2022/12/15 06:07:53;;;;;;;61.67;27.02;;;;;;;-8.03;100.00;100188.69;4981087;28;20118;-80
2022/12/15 06:10:20;;;;;;;54.92;27.02;;;;;;;-8.03;100.00;100206.47;4982263;28;20153;-80
2022/12/15 06:12:47;;;;;;;56.90;27.67;;;;;;;-8.02;100.00;100203.06;4991689;28;20121;-82
2022/12/15 06:15:14;;;;;;;56.30;27.33;;;;;;;-7.98;100.00;100202.06;4997723;28;20109;-79
2022/12/15 06:17:43;;;;;;;54.92;26.83;;;;;;;-8.00;100.00;100208.09;4980494;28;20054;-79
2022/12/15 06:20:10;;;;;;;51.55;27.55;;;;;;;-7.98;100.00;100208.88;4980020;28;20501;-79
2022/12/15 06:22:37;;;;;;;61.22;28.15;;;;;;;-8.01;100.00;100212.34;4979526;28;20128;-80
2022/12/15 06:25:06;;;;;;;56.10;27.95;;;;;;;-7.99;100.00;100207.19;4979591;28;20118;-80
2022/12/15 06:27:35;;;;;;;52.92;26.50;;;;;;;-8.03;100.00;100194.59;4980653;28;20360;-80
2022/12/15 06:30:02;;;;;;;55.88;26.58;;;;;;;-8.00;100.00;100198.75;4980954;28;20110;-81
2022/12/15 06:32:28;;;;;;;56.85;28.10;;;;;;;-8.06;100.00;100198.97;4974839;28;20135;-80
2022/12/15 06:34:55;;;;;;;58.60;26.13;;;;;;;-8.11;100.00;100201.66;4988661;28;20469;-80
2022/12/15 06:37:22;;;;;;;56.83;26.48;;;;;;;-8.13;100.00;100200.88;4998544;28;20070;-80
2022/12/15 06:39:48;;;;;;;58.72;26.52;;;;;;;-8.14;100.00;100200.94;5000250;28;20046;-80
2022/12/15 06:42:16;;;;;;;50.15;25.77;;;;;;;-8.16;100.00;100202.69;4983591;28;20097;-79
2022/12/15 06:44:43;;;;;;;50.67;27.42;;;;;;;-8.12;100.00;100204.25;4981622;28;20055;-80
2022/12/15 06:47:09;;;;;;;56.40;27.90;;;;;;;-8.09;100.00;100204.16;4980560;28;20130;-80
2022/12/15 06:49:36;;;;;;;52.33;27.15;;;;;;;-8.08;100.00;100205.81;4980495;28;20078;-79
2022/12/15 06:52:02;;;;;;;54.08;25.33;;;;;;;-8.09;100.00;100216.84;4981046;28;20085;-79
2022/12/15 06:54:29;;;;;;;57.63;27.70;;;;;;;-8.08;100.00;100214.28;4980139;28;20047;-80
2022/12/15 06:56:56;;;;;;;63.40;26.45;;;;;;;-8.07;100.00;100210.03;4981159;28;20581;-80
2022/12/15 06:59:27;;;;;;;60.03;31.60;;;;;;;-8.08;100.00;100211.72;4978474;28;20050;-80
2022/12/15 07:01:54;;;;;;;57.65;27.80;;;;;;;-8.01;100.00;100217.41;4976363;28;20073;-80
2022/12/15 07:04:20;;;;;;;58.50;27.50;;;;;;;-8.03;100.00;100221.72;4982994;28;20055;-79
2022/12/15 07:06:48;;;;;;;58.75;27.75;;;;;;;-7.96;100.00;100213.03;4985656;28;20066;-79
2022/12/15 07:09:16;;;;;;;53.53;26.85;;;;;;;-7.94;100.00;100223.97;4992934;28;20050;-78
2022/12/15 07:11:43;;;;;;;56.42;25.52;;;;;;;-8.00;100.00;100219.06;4981719;28;20073;-78
2022/12/15 07:14:10;;;;;;;58.08;26.05;;;;;;;-7.98;100.00;100224.94;4977584;28;20506;-79
2022/12/15 07:16:38;;;;;;;52.03;25.63;;;;;;;-7.98;100.00;100227.47;4978578;28;20129;-78
2022/12/15 07:19:05;;;;;;;57.15;27.75;;;;;;;-7.99;100.00;100230.88;4977534;28;20138;-79
2022/12/15 07:21:32;;;;;;;53.90;25.45;;;;;;;-8.00;100.00;100229.22;4977080;28;20054;-79
2022/12/15 07:23:58;;;;;;;48.28;25.83;;;;;;;-7.90;100.00;100238.22;4983582;28;20080;-79
2022/12/15 07:26:25;;;;;;;57.45;26.02;;;;;;;-7.85;100.00;100226.19;4989355;28;20046;-79
2022/12/15 07:28:52;;;;;;;55.13;27.35;;;;;;;-7.72;100.00;100231.72;4996886;28;20053;-79
2022/12/15 07:31:19;;;;;;;58.63;27.75;;;;;;;-7.66;100.00;100233.22;4979434;28;20097;-79
2022/12/15 07:33:48;;;;;;;58.60;26.92;;;;;;;-7.54;100.00;100232.78;4974090;28;20125;-79
2022/12/15 07:36:14;;;;;;;61.42;26.67;;;;;;;-7.49;100.00;100239.38;4974507;28;20047;-77
2022/12/15 07:38:41;;;;;;;55.08;26.15;;;;;;;-7.40;100.00;100230.63;4976457;28;20512;-79
2022/12/15 07:41:10;;;;;;;62.95;27.58;;;;;;;-7.28;100.00;100237.81;4976646;28;20147;-78
2022/12/15 07:43:37;;;;;;;56.88;28.23;;;;;;;-7.23;100.00;100238.50;4975901;28;20053;-78
2022/12/15 07:46:04;;;;;;;51.83;25.45;;;;;;;-7.11;100.00;100232.97;4976172;28;20110;-79
2022/12/15 07:48:31;;;;;;;55.42;26.98;;;;;;;-6.98;100.00;100232.50;4975232;28;20078;-79
2022/12/15 07:51:24;;;;;;;51.88;24.52;;;;;;;-6.86;100.00;100237.16;4971962;28;20464;-79
2022/12/15 07:53:51;;;;;;;53.47;26.60;;;;;;;-6.78;100.00;100237.72;4970411;28;20055;-78
2022/12/15 07:56:19;;;;;;;53.83;26.67;;;;;;;-6.71;100.00;100236.59;4982387;28;20200;-79
2022/12/15 07:58:45;;;;;;;59.25;26.15;;;;;;;-6.68;100.00;100228.88;4988207;28;20053;-78
2022/12/15 08:01:14;;;;;;;54.05;25.38;;;;;;;-6.62;100.00;100231.19;4986669;28;20285;-79
2022/12/15 08:03:40;;;;;;;54.17;26.35;;;;;;;-6.56;100.00;100233.47;4963833;28;20544;-79
2022/12/15 08:06:11;;;;;;;51.92;25.90;;;;;;;-6.39;100.00;100238.75;4970996;28;20082;-79
2022/12/15 08:08:38;;;;;;;63.40;29.95;;;;;;;-6.28;100.00;100246.00;4959119;28;20129;-79
2022/12/15 08:11:05;;;;;;;58.47;28.15;;;;;;;-6.27;100.00;100250.19;4968044;28;20126;-77
2022/12/15 08:13:33;;;;;;;67.70;31.63;;;;;;;-6.22;100.00;100265.28;4976071;28;20119;-78
2022/12/15 08:16:00;;;;;;;64.60;29.45;;;;;;;-6.06;100.00;100269.72;4974123;28;20055;-78
2022/12/15 08:18:27;;;;;;;66.50;30.83;;;;;;;-5.97;100.00;100272.78;4959879;28;20082;-79
2022/12/15 08:20:55;;;;;;;68.38;31.42;;;;;;;-5.93;100.00;100275.16;4972368;28;20046;-78
2022/12/15 08:23:23;;;;;;;68.85;32.33;;;;;;;-5.83;100.00;100278.16;4975224;28;20050;-79
2022/12/15 08:25:49;;;;;;;70.93;31.48;;;;;;;-5.68;100.00;100287.72;4979883;28;20394;-77
2022/12/15 08:28:16;;;;;;;77.15;32.20;;;;;;;-5.72;100.00;100281.94;4989020;28;20081;-79
2022/12/15 08:30:43;;;;;;;78.68;32.10;;;;;;;-5.60;100.00;100279.75;4990124;28;20074;-78
2022/12/15 08:33:09;;;;;;;84.68;35.13;;;;;;;-5.69;100.00;100286.91;4980488;28;20070;-78
2022/12/15 08:35:38;;;;;;;79.50;32.60;;;;;;;-5.73;100.00;100285.38;4986545;28;20098;-78
2022/12/15 08:38:05;;;;;;;76.60;32.00;;;;;;;-5.67;100.00;100300.38;4995444;28;20081;-81
2022/12/15 08:40:33;;;;;;;81.03;33.90;;;;;;;-5.54;100.00;100305.00;4989115;28;20066;-79
2022/12/15 08:43:00;;;;;;;79.45;32.50;;;;;;;-5.62;100.00;100307.03;4957579;28;20130;-78
2022/12/15 08:45:26;;;;;;;81.35;35.45;;;;;;;-5.64;100.00;100303.69;4987907;28;20126;-79
2022/12/15 08:47:55;;;;;;;79.65;34.25;;;;;;;-5.54;100.00;100315.19;4976031;28;20085;-79
2022/12/15 08:50:22;;;;;;;78.93;33.58;;;;;;;-5.77;100.00;100309.31;4974217;28;20125;-79
2022/12/15 08:52:48;;;;;;;85.70;34.65;;;;;;;-5.78;100.00;100306.81;4973025;28;20074;-76
2022/12/15 08:55:15;;;;;;;79.65;33.60;;;;;;;-5.70;100.00;100305.63;4973294;28;20050;-78
2022/12/15 08:57:43;;;;;;;81.10;35.75;;;;;;;-5.72;100.00;100304.88;4976595;28;20089;-79
2022/12/15 09:00:11;;;;;;;84.32;34.63;;;;;;;-5.67;100.00;100318.22;4975712;28;20482;-82
2022/12/15 09:02:37;;;;;;;85.60;37.60;;;;;;;-5.69;100.00;100321.75;4976538;28;20138;-80
2022/12/15 09:05:09;;;;;;;77.35;36.03;;;;;;;-5.75;100.00;100324.53;4977399;28;20089;-79
2022/12/15 09:07:36;;;;;;;83.63;35.90;;;;;;;-5.73;100.00;100318.50;4973581;28;20132;-78
2022/12/15 09:10:03;;;;;;;85.78;36.78;;;;;;;-5.75;100.00;100327.09;4972657;28;20552;-78
2022/12/15 09:12:32;;;;;;;80.25;35.25;;;;;;;-5.70;100.00;100327.75;4972970;28;20057;-79
2022/12/15 09:15:00;;;;;;;84.65;36.70;;;;;;;-5.84;100.00;100330.81;4974269;28;20114;-78
2022/12/15 09:17:27;;;;;;;89.38;35.83;;;;;;;-5.73;100.00;100328.69;4973998;28;20051;-78
2022/12/15 09:19:53;;;;;;;88.00;38.05;;;;;;;-5.77;100.00;100334.81;4973636;28;20134;-78
2022/12/15 09:22:20;;;;;;;85.57;37.50;;;;;;;-5.76;100.00;100340.72;4972541;28;20129;-77
2022/12/15 09:24:48;;;;;;;80.57;34.65;;;;;;;-5.58;100.00;100354.44;4973003;28;20069;-79
2022/12/15 09:27:15;;;;;;;84.20;37.28;;;;;;;-5.50;100.00;100353.25;4973066;28;20047;-79
2022/12/15 09:29:41;;;;;;;89.88;37.75;;;;;;;-5.61;100.00;100354.56;4973050;28;20120;-79
2022/12/15 09:32:09;;;;;;;85.75;36.65;;;;;;;-5.61;100.00;100352.84;4972885;28;20069;-78
2022/12/15 09:34:36;;;;;;;85.22;36.47;;;;;;;-5.42;100.00;100360.59;4976441;28;20057;-79
2022/12/15 09:37:02;;;;;;;95.57;38.60;;;;;;;-5.24;100.00;100359.84;4976221;28;20137;-81
2022/12/15 09:39:29;;;;;;;87.85;35.50;;;;;;;-5.30;100.00;100357.56;4976952;28;20091;-79
2022/12/15 09:41:59;;;;;;;92.88;36.38;;;;;;;-5.12;100.00;100354.22;4977554;28;20050;-80
2022/12/15 09:44:30;;;;;;;94.57;37.08;;;;;;;-4.98;100.00;100355.38;4982204;28;20089;-80
2022/12/15 09:47:24;;;;;;;83.85;38.63;;;;;;;-4.96;100.00;100354.41;4982275;28;20505;-80
2022/12/15 09:49:55;;;;;;;91.20;37.20;;;;;;;-4.91;100.00;100362.72;4978904;28;20047;-81
2022/12/15 09:52:25;;;;;;;80.18;36.50;;;;;;;-4.75;100.00;100356.06;4982016;28;20478;-80
2022/12/15 09:54:52;;;;;;;87.53;37.17;;;;;;;-4.94;100.00;100365.41;4982517;28;20532;-81
2022/12/15 09:57:30;;;;;;;86.40;38.97;;;;;;;-4.99;100.00;100374.97;4981627;28;20070;-80
2022/12/15 10:00:20;;;;;;;82.10;36.00;;;;;;;-4.89;100.00;100385.63;4981705;28;20047;-81
2022/12/15 10:03:29;;;;;;;85.25;37.65;;;;;;;-5.27;100.00;100371.91;4962369;28;20057;-80
2022/12/15 10:06:09;;;;;;;91.13;38.40;;;;;;;-5.30;100.00;100364.38;4865943;29;20101;-80
2022/12/15 10:08:40;;;;;;;89.10;38.15;;;;;;;-5.22;100.00;100380.19;4867576;29;20136;-81
2022/12/15 10:11:18;;;;;;;87.30;36.50;;;;;;;-5.07;100.00;100371.91;4942231;28;20055;-80
2022/12/15 10:13:51;;;;;;;85.88;36.50;;;;;;;-4.89;100.00;100385.63;4981997;28;20055;-81
2022/12/15 10:16:24;;;;;;;84.00;36.58;;;;;;;-4.79;100.00;100376.69;4980894;28;20525;-81
2022/12/15 10:19:08;;;;;;;91.03;37.58;;;;;;;-4.85;100.00;100371.84;4979801;28;20054;-81
2022/12/15 10:21:36;;;;;;;88.28;38.45;;;;;;;-4.66;100.00;100377.78;4980614;28;20047;-81
2022/12/15 10:24:16;;;;;;;85.65;39.08;;;;;;;-4.54;100.00;100372.16;4981222;28;20086;-80
2022/12/15 10:26:46;;;;;;;82.65;35.40;;;;;;;-4.56;100.00;100373.97;4980284;28;20050;-80
2022/12/15 10:29:24;;;;;;;82.78;36.10;;;;;;;-5.01;100.00;100366.53;4980462;28;20472;-80
2022/12/15 10:31:56;;;;;;;86.43;37.22;;;;;;;-5.10;100.00;100372.84;4981572;28;20054;-82
2022/12/15 10:34:27;;;;;;;87.95;39.35;;;;;;;-5.05;100.00;100367.56;4979062;28;20062;-80
2022/12/15 10:36:56;;;;;;;92.28;39.65;;;;;;;-4.92;100.00;100376.38;4978675;28;20418;-78
2022/12/15 10:39:24;;;;;;;90.18;39.42;;;;;;;-4.83;100.00;100372.59;4976287;28;20209;-79
2022/12/15 10:42:11;;;;;;;79.85;33.85;;;;;;;-4.87;100.00;100358.31;4975654;28;20070;-78
2022/12/15 10:44:39;;;;;;;96.03;38.63;;;;;;;-4.97;100.00;100351.94;4974325;28;20055;-78
2022/12/15 10:47:11;;;;;;;97.38;42.67;;;;;;;-5.07;100.00;100349.75;4975656;28;20472;-78
2022/12/15 10:49:39;;;;;;;71.90;32.55;;;;;;;-5.01;100.00;100359.72;4975064;28;20077;-78
2022/12/15 10:52:12;;;;;;;97.90;40.40;;;;;;;-4.88;100.00;100337.06;4998690;23;20129;-79
2022/12/15 10:54:45;;;;;;;96.07;39.00;;;;;;;-4.82;100.00;100335.97;5015250;28;20045;-79
2022/12/15 10:57:22;;;;;;;91.75;41.13;;;;;;;-4.76;100.00;100346.75;5020206;28;20060;-79
2022/12/15 10:59:49;;;;;;;124.53;63.10;;;;;;;-4.62;100.00;100335.09;5022404;28;20069;-79
2022/12/15 11:02:26;;;;;;;91.55;40.95;;;;;;;-4.73;100.00;100340.69;5017171;28;20051;-79
2022/12/15 11:04:57;;;;;;;87.43;39.67;;;;;;;-4.59;100.00;100338.34;5002208;28;20517;-79
2022/12/15 11:07:26;;;;;;;91.80;40.55;;;;;;;-4.69;100.00;100331.97;5001233;28;20077;-79
2022/12/15 11:09:59;;;;;;;82.90;38.38;;;;;;;-4.72;100.00;100345.69;4997831;28;20086;-79
2022/12/15 11:15:40;;;;;;;82.60;37.65;;;;;;;-4.61;100.00;100339.31;5003879;28;19952;-80
2022/12/15 11:18:14;;;;;;;89.20;38.70;;;;;;;-4.52;100.00;100356.78;5008784;28;20050;-80
2022/12/15 11:20:47;;;;;;;85.18;39.38;;;;;;;-4.59;100.00;100345.16;5012051;28;20043;-78
2022/12/15 11:23:19;;;;;;;91.68;40.33;;;;;;;-4.61;100.00;100345.25;5009912;28;20085;-79
2022/12/15 11:25:51;;;;;;;84.13;38.27;;;;;;;-4.39;100.00;100340.84;5000978;28;20137;-78
2022/12/15 11:28:22;;;;;;;92.55;42.03;;;;;;;-4.13;100.00;100337.09;5006355;28;20106;-79
2022/12/15 11:30:56;;;;;;;97.00;42.90;;;;;;;-4.14;100.00;100339.72;5008644;28;20073;-78
2022/12/15 11:33:23;;;;;;;84.80;39.17;;;;;;;-4.19;100.00;100327.16;5007929;28;20054;-78
2022/12/15 11:36:08;;;;;;;92.97;39.30;;;;;;;-3.98;100.00;100337.31;5007920;28;20057;-78
2022/12/15 11:38:49;;;;;;;96.15;42.00;;;;;;;-3.89;100.00;100339.44;5007489;28;20054;-80
2022/12/15 11:41:35;;;;;;;87.38;41.67;;;;;;;-3.71;100.00;100344.50;5010918;28;20077;-79
2022/12/15 11:44:18;;;;;;;89.07;39.67;;;;;;;-3.82;100.00;100333.13;5011566;28;20047;-80
2022/12/15 11:46:53;;;;;;;86.43;39.83;;;;;;;-4.19;100.00;100326.31;5010839;28;20054;-81
2022/12/15 11:49:53;;;;;;;86.57;40.22;;;;;;;-4.04;100.00;100340.97;5007965;28;20065;-81
2022/12/15 11:52:42;;;;;;;88.45;42.35;;;;;;;-4.41;100.00;100322.22;4982573;28;20062;-80
2022/12/15 11:55:20;;;;;;;96.45;41.90;;;;;;;-4.59;100.00;100317.91;5006617;28;20082;-80
2022/12/15 11:58:04;;;;;;;108.32;44.95;;;;;;;-4.46;100.00;100331.81;5008285;28;20064;-81
2022/12/15 12:00:36;;;;;;;114.35;45.78;;;;;;;-4.56;100.00;100338.22;5007541;28;20057;-80
2022/12/15 12:03:18;;;;;;;113.15;46.30;;;;;;;-4.68;100.00;100329.34;5008026;28;20109;-80
2022/12/15 12:06:01;;;;;;;110.65;45.53;;;;;;;-4.60;100.00;100334.13;5007298;28;20057;-80
2022/12/15 12:08:50;;;;;;;120.90;47.50;;;;;;;-4.53;100.00;100332.97;5007730;28;20118;-80
2022/12/15 12:11:26;;;;;;;114.55;46.13;;;;;;;-4.61;100.00;100314.59;5008487;28;20069;-80
2022/12/15 12:14:06;;;;;;;106.22;45.92;;;;;;;-4.67;100.00;100307.22;5008531;28;20054;-80
2022/12/15 12:16:42;;;;;;;125.38;46.50;;;;;;;-4.63;100.00;100301.06;5007863;28;20089;-79
2022/12/15 12:19:13;;;;;;;114.88;46.47;;;;;;;-4.44;100.00;100307.03;5010962;28;20065;-81
2022/12/15 12:21:43;;;;;;;115.85;46.08;;;;;;;-4.54;100.00;100292.19;5010424;28;20050;-82
2022/12/15 12:24:22;;;;;;;118.03;45.67;;;;;;;-4.73;100.00;100290.47;5008376;28;20493;-82
2022/12/15 12:27:06;;;;;;;104.05;44.42;;;;;;;-4.45;100.00;100307.91;5008458;28;20057;-82
2022/12/15 12:29:35;;;;;;;96.05;42.97;;;;;;;-4.49;100.00;100308.94;5008197;28;20061;-81
2022/12/15 12:32:11;;;;;;;102.13;42.22;;;;;;;-4.56;100.00;100287.13;5012301;28;20165;-82
2022/12/15 12:34:57;;;;;;;109.18;44.55;;;;;;;-4.47;100.00;100294.38;5011450;28;20050;-81
2022/12/15 12:37:31;;;;;;;102.60;43.22;;;;;;;-4.58;100.00;100277.88;5011367;28;20054;-81
2022/12/15 12:40:07;;;;;;;93.55;41.15;;;;;;;-4.41;100.00;100286.47;5010077;28;20126;-81
2022/12/15 12:42:42;;;;;;;105.78;43.80;;;;;;;-4.41;100.00;100275.41;5011091;28;20137;-81
2022/12/15 12:45:12;;;;;;;98.88;43.45;;;;;;;-4.39;100.00;100266.78;5011922;28;20461;-81
2022/12/15 12:47:43;;;;;;;99.07;42.30;;;;;;;-4.29;100.00;100263.81;5009345;28;20046;-82
2022/12/15 12:50:18;;;;;;;84.55;39.95;;;;;;;-4.22;100.00;100288.97;5004726;28;20069;-83
2022/12/15 12:53:00;;;;;;;80.80;38.70;;;;;;;-4.29;100.00;100279.13;5006195;28;20096;-82
2022/12/15 12:55:39;;;;;;;88.00;38.00;;;;;;;-4.24;100.00;100265.22;5005776;28;20051;-81
2022/12/15 12:58:41;;;;;;;89.05;38.40;;;;;;;-4.47;100.00;100217.78;5005693;28;20082;-82
2022/12/15 13:01:24;;;;;;;85.45;38.42;;;;;;;-4.42;100.00;100222.69;4998555;28;20050;-82
2022/12/15 13:04:08;;;;;;;88.18;40.22;;;;;;;-4.32;100.00;100249.44;5006110;28;20069;-83
2022/12/15 13:06:59;;;;;;;78.88;37.28;;;;;;;-4.21;100.00;100236.16;5005461;28;20425;-81
2022/12/15 13:09:47;;;;;;;86.05;37.88;;;;;;;-4.15;100.00;100230.75;5004126;28;20100;-82
2022/12/15 13:12:35;;;;;;;79.82;37.50;;;;;;;-4.07;100.00;100226.13;5004896;28;20450;-81
2022/12/15 13:15:10;;;;;;;86.53;37.40;;;;;;;-4.04;100.00;100223.41;5004974;28;20046;-81
2022/12/15 13:17:41;;;;;;;80.25;35.10;;;;;;;-4.01;100.00;100195.16;5006132;28;20054;-83
2022/12/15 13:20:26;;;;;;;84.07;36.65;;;;;;;-3.97;100.00;100204.34;5002770;28;20050;-82
2022/12/15 13:22:58;;;;;;;83.32;36.65;;;;;;;-3.86;100.00;100219.97;4999869;28;20054;-82
2022/12/15 13:25:45;;;;;;;83.03;37.47;;;;;;;-3.75;100.00;100221.97;4999760;28;20057;-82
2022/12/15 13:28:42;;;;;;;82.95;37.15;;;;;;;-3.76;100.00;100207.53;5000596;28;20120;-81
2022/12/15 13:31:38;;;;;;;78.03;33.63;;;;;;;-3.61;100.00;100206.78;5000352;28;20050;-81
2022/12/15 13:34:25;;;;;;;73.07;35.15;;;;;;;-3.58;100.00;100210.94;4998054;28;20073;-82
2022/12/15 13:36:57;;;;;;;77.00;33.33;;;;;;;-3.50;100.00;100201.97;4996596;28;20074;-81
2022/12/15 13:39:52;;;;;;;74.70;36.60;;;;;;;-3.47;100.00;100195.88;4996715;28;20066;-82
2022/12/15 13:42:31;;;;;;;73.22;34.17;;;;;;;-3.61;100.00;100176.09;4996677;28;20081;-81
2022/12/15 13:45:15;;;;;;;72.80;36.17;;;;;;;-3.46;100.00;100190.69;4997742;28;20074;-81
2022/12/15 13:47:51;;;;;;;72.40;34.90;;;;;;;-3.46;100.00;100189.84;4997600;28;20058;-81
2022/12/15 13:50:30;;;;;;;79.85;35.28;;;;;;;-3.42;100.00;100181.13;4997019;28;20053;-81
2022/12/15 13:53:00;;;;;;;71.10;35.83;;;;;;;-3.42;100.00;100176.00;4997196;28;20062;-80